CYZT

Port Hardy Airport

Port Hardy, , Canada
METAR CYZT 190700Z 28006KT 15SM BKN054 14/10 A3022 RMK SC7 SLP234
Observed Flight Rules
Jul-19 @ 07:00 UTC (42 minutes ago) Visual Flight Rules
Wind Visibility Clouds
280° at 6 knots 15 miles
  • Broken at 5,400' AGL
Temperatures Readings
Current 14°C / 57°F
Dewpoint 10°C / 50°F
Humidity 77%
Altimeter 30.22" Hg
Pressure 1023.4 hPa
Elevation 22
METAR CYZT 190700Z 28006KT 15SM BKN054 14/10 A3022 RMK SC7 SLP234
Observed Flight Rules
Jul-19 @ 07:00 UTC
(42 minutes ago)
VFR
Wind Visibility
280° at 6 knots 15 miles
Clouds
  • Broken at 5,400' AGL
Temperature Dewpoint
14°C / 57°F 10°C / 50°F
Humidity Altimeter Pressure
77% 30.22" Hg 1023.4 hPa